createdAt,value
2018-03-04T00:01:17.702Z,44.23
2018-03-04T00:03:45.953Z,50.73
2018-03-04T00:06:15.156Z,47.43
2018-03-04T00:08:44.175Z,48.00
2018-03-04T00:11:12.428Z,47.63
2018-03-04T00:13:41.472Z,43.87
2018-03-04T00:16:09.719Z,43.90
2018-03-04T00:18:37.965Z,42.00
2018-03-04T00:21:06.235Z,44.57
2018-03-04T00:23:34.485Z,45.53
2018-03-04T00:26:02.734Z,48.80
2018-03-04T00:28:31.217Z,45.93
2018-03-04T00:30:59.463Z,43.77
2018-03-04T00:33:28.478Z,44.93
2018-03-04T00:35:56.746Z,46.77
2018-03-04T00:38:24.993Z,45.97
2018-03-04T00:40:53.229Z,47.13
2018-03-04T00:43:21.748Z,49.57
2018-03-04T00:45:49.986Z,54.10
2018-03-04T00:48:18.434Z,61.73
2018-03-04T00:50:47.463Z,54.63
2018-03-04T00:53:15.694Z,44.33
2018-03-04T00:55:43.931Z,42.23
2018-03-04T00:58:12.194Z,53.00
2018-03-04T01:00:40.434Z,47.97
2018-03-04T01:03:09.442Z,45.43
2018-03-04T01:05:37.833Z,48.10
2018-03-04T01:08:06.479Z,45.23
2018-03-04T01:10:35.504Z,57.93
2018-03-04T01:13:04.310Z,49.20
2018-03-04T01:15:32.551Z,48.67
2018-03-04T01:18:01.581Z,51.13
2018-03-04T01:20:29.846Z,59.90
2018-03-04T01:22:58.104Z,59.30
2018-03-04T01:25:27.109Z,52.63
2018-03-04T01:27:55.377Z,56.20
2018-03-04T01:30:23.617Z,57.10
2018-03-04T01:32:51.861Z,49.47
2018-03-04T01:35:20.135Z,58.27
2018-03-04T01:37:48.465Z,52.47
2018-03-04T01:40:17.480Z,52.20
2018-03-04T01:42:45.742Z,54.23
2018-03-04T01:45:13.985Z,59.57
2018-03-04T01:47:42.230Z,50.30
2018-03-04T01:50:10.704Z,67.93
2018-03-04T01:52:38.953Z,60.60
2018-03-04T01:55:07.956Z,55.20
2018-03-04T01:57:36.991Z,56.43
2018-03-04T02:00:05.241Z,51.67
2018-03-04T02:02:33.494Z,52.17
2018-03-04T02:05:02.613Z,55.80
2018-03-04T02:07:30.869Z,58.97
2018-03-04T02:10:00.035Z,59.63
2018-03-04T02:12:28.321Z,67.47
2018-03-04T02:14:56.561Z,61.17
2018-03-04T02:17:24.801Z,56.33
2018-03-04T02:19:53.834Z,68.77
2018-03-04T02:22:22.087Z,64.50
2018-03-04T02:24:50.342Z,60.07
2018-03-04T02:27:18.962Z,56.43
2018-03-04T02:29:47.213Z,62.77
2018-03-04T02:32:16.412Z,59.83
2018-03-04T02:34:44.686Z,68.30
2018-03-04T02:37:12.938Z,68.37
2018-03-04T02:39:41.333Z,67.30
2018-03-04T02:42:10.382Z,57.03
2018-03-04T02:44:38.630Z,60.23
2018-03-04T02:47:06.874Z,60.13
2018-03-04T02:49:35.322Z,70.63
2018-03-04T02:52:03.751Z,61.70
2018-03-04T02:54:32.922Z,63.87
2018-03-04T02:57:01.191Z,65.13
2018-03-04T02:59:29.432Z,65.53
2018-03-04T03:01:57.679Z,61.93
2018-03-04T03:04:27.003Z,70.20
2018-03-04T03:06:55.385Z,66.17
2018-03-04T03:09:23.672Z,70.87
2018-03-04T03:11:52.287Z,67.67
2018-03-04T03:14:20.550Z,62.70
2018-03-04T03:16:49.034Z,67.93
2018-03-04T03:19:17.313Z,71.37
2018-03-04T03:21:45.691Z,72.30
2018-03-04T03:24:14.059Z,64.43
2018-03-04T03:26:42.744Z,70.17
2018-03-04T03:29:11.266Z,69.77
2018-03-04T03:31:39.787Z,66.23
2018-03-04T03:34:08.373Z,62.43
2018-03-04T03:36:36.969Z,74.10
2018-03-04T03:39:05.220Z,62.90
2018-03-04T03:41:34.602Z,70.47
2018-03-04T03:44:02.935Z,71.20
2018-03-04T03:46:31.243Z,65.27
2018-03-04T03:48:59.658Z,76.57
2018-03-04T03:51:29.419Z,78.50
2018-03-04T03:53:57.669Z,71.23
2018-03-04T03:56:26.174Z,72.80
2018-03-04T03:58:54.429Z,63.22
2018-03-04T04:01:22.899Z,68.13
2018-03-04T04:03:51.392Z,86.43
2018-03-04T04:06:19.648Z,72.30
2018-03-04T04:08:48.908Z,70.40
2018-03-04T04:11:17.468Z,78.23
2018-03-04T04:13:46.211Z,69.87
2018-03-04T04:16:15.307Z,78.80
2018-03-04T04:18:44.343Z,67.53
2018-03-04T04:21:12.684Z,73.57
2018-03-04T04:23:41.134Z,70.57
2018-03-04T04:26:10.277Z,77.70
2018-03-04T04:28:38.519Z,64.60
2018-03-04T04:31:07.020Z,81.30
2018-03-04T04:33:36.085Z,72.97
2018-03-04T04:36:04.338Z,77.50
2018-03-04T04:38:32.602Z,66.80
2018-03-04T04:41:00.887Z,75.23
2018-03-04T04:43:29.126Z,72.20
2018-03-04T04:45:57.392Z,71.47
2018-03-04T04:48:25.666Z,79.83
2018-03-04T04:50:53.926Z,80.20
2018-03-04T04:53:22.162Z,69.57
2018-03-04T04:55:50.694Z,73.67
2018-03-04T04:58:18.946Z,63.13
2018-03-04T05:00:47.195Z,65.78
2018-03-04T05:03:15.473Z,70.67
2018-03-04T05:05:43.715Z,70.30
2018-03-04T05:08:12.721Z,77.17
2018-03-04T05:10:41.009Z,74.70
2018-03-04T05:13:09.251Z,73.47
2018-03-04T05:15:37.656Z,71.00
2018-03-04T05:18:06.690Z,72.80
2018-03-04T05:20:34.942Z,71.68
2018-03-04T05:23:03.211Z,67.97
2018-03-04T05:25:32.246Z,71.17
2018-03-04T05:28:00.494Z,68.70
2018-03-04T05:30:28.755Z,77.72
2018-03-04T05:32:58.070Z,65.90
2018-03-04T05:35:26.337Z,74.03
2018-03-04T05:37:55.353Z,64.10
2018-03-04T05:40:23.744Z,74.15
2018-03-04T05:42:51.991Z,74.07
2018-03-04T05:45:20.235Z,71.93
2018-03-04T05:47:48.517Z,76.10
2018-03-04T05:50:16.773Z,80.55
2018-03-04T05:52:45.018Z,78.53
2018-03-04T05:55:13.298Z,74.03
2018-03-04T05:57:41.777Z,81.67
2018-03-04T06:00:10.030Z,73.97
2018-03-04T06:02:38.302Z,81.33
2018-03-04T06:05:07.318Z,78.67
2018-03-04T06:07:35.599Z,98.67
2018-03-04T06:10:03.882Z,74.28
2018-03-04T06:12:32.130Z,82.40
2018-03-04T06:15:01.182Z,80.60
2018-03-04T06:17:29.622Z,80.53
2018-03-04T06:19:58.817Z,72.77
2018-03-04T06:22:27.050Z,73.93
2018-03-04T06:24:55.338Z,66.25
2018-03-04T06:27:23.577Z,74.37
2018-03-04T06:29:51.829Z,84.00
2018-03-04T06:32:20.337Z,78.57
2018-03-04T06:34:48.766Z,75.10
2018-03-04T06:37:17.786Z,74.37
2018-03-04T06:39:46.150Z,85.87
2018-03-04T06:42:15.163Z,77.63
2018-03-04T06:44:43.419Z,79.73
2018-03-04T06:47:11.680Z,74.57
2018-03-04T06:49:39.926Z,76.47
2018-03-04T06:52:08.170Z,77.53
2018-03-04T06:54:36.450Z,74.40
2018-03-04T06:57:04.701Z,73.93
2018-03-04T06:59:33.711Z,80.17
2018-03-04T07:02:02.094Z,80.33
2018-03-04T07:04:30.375Z,71.53
2018-03-04T07:06:58.627Z,86.43
2018-03-04T07:09:27.669Z,81.13
2018-03-04T07:11:55.926Z,75.03
2018-03-04T07:14:24.175Z,86.87
2018-03-04T07:16:53.214Z,87.97
2018-03-04T07:19:21.846Z,81.80
2018-03-04T07:21:50.863Z,61.57
2018-03-04T07:24:19.253Z,79.93
2018-03-04T07:26:47.497Z,91.30
2018-03-04T07:29:16.517Z,74.80
2018-03-04T07:31:44.802Z,76.70
2018-03-04T07:34:13.022Z,68.37
2018-03-04T07:36:41.274Z,77.13
2018-03-04T07:39:09.905Z,67.67
2018-03-04T07:41:44.825Z,79.80
2018-03-04T07:44:13.108Z,73.60
2018-03-04T07:46:41.352Z,71.23
2018-03-04T07:49:09.594Z,81.33
2018-03-04T07:51:37.997Z,76.43
2018-03-04T07:54:06.248Z,64.73
2018-03-04T07:56:39.270Z,73.00
2018-03-04T07:59:08.411Z,66.57
2018-03-04T08:01:38.566Z,71.57
2018-03-04T08:04:06.836Z,75.00
2018-03-04T08:06:35.195Z,72.53
2018-03-04T08:09:04.202Z,85.83
2018-03-04T08:11:33.641Z,69.70
2018-03-04T08:14:01.874Z,81.20
2018-03-04T08:16:30.891Z,76.23
2018-03-04T08:18:59.162Z,76.17
2018-03-04T08:21:27.535Z,74.43
2018-03-04T08:23:55.782Z,74.37
2018-03-04T08:26:35.999Z,72.10
2018-03-04T08:29:04.242Z,70.87
2018-03-04T08:31:32.490Z,59.80
2018-03-04T08:34:00.838Z,69.53
2018-03-04T08:36:29.246Z,65.73
2018-03-04T08:38:57.530Z,54.07
2018-03-04T08:41:25.808Z,67.97
2018-03-04T08:43:54.050Z,69.20
2018-03-04T08:46:22.305Z,74.53
2018-03-04T08:48:50.798Z,75.67
2018-03-04T08:51:19.044Z,62.90
2018-03-04T08:53:47.373Z,69.03
2018-03-04T08:56:15.635Z,66.30
2018-03-04T08:58:43.912Z,75.10
2018-03-04T09:01:12.323Z,60.43
2018-03-04T09:03:40.608Z,70.27
2018-03-04T09:06:08.857Z,73.57
2018-03-04T09:08:37.158Z,69.60
2018-03-04T09:11:06.781Z,79.80
2018-03-04T09:13:35.808Z,65.47
2018-03-04T09:16:04.049Z,68.40
2018-03-04T09:18:32.698Z,66.47
2018-03-04T09:21:00.947Z,77.50
2018-03-04T09:23:29.400Z,58.83
2018-03-04T09:25:58.457Z,63.03
2018-03-04T09:28:26.695Z,60.77
2018-03-04T09:30:54.942Z,72.10
2018-03-04T09:33:23.210Z,62.33
2018-03-04T09:35:51.459Z,58.87
2018-03-04T09:38:19.694Z,63.33
2018-03-04T09:40:48.151Z,63.27
2018-03-04T09:43:17.173Z,66.30
2018-03-04T09:45:45.418Z,63.93
2018-03-04T09:48:13.693Z,71.90
2018-03-04T09:50:42.102Z,61.87
2018-03-04T09:53:10.366Z,61.83
2018-03-04T09:55:39.386Z,60.20
2018-03-04T09:58:07.771Z,67.00
2018-03-04T10:00:36.011Z,59.87
2018-03-04T10:03:04.302Z,57.20
2018-03-04T10:05:32.540Z,68.37
2018-03-04T10:08:00.805Z,58.40
2018-03-04T10:10:29.078Z,67.60
2018-03-04T10:12:57.322Z,54.37
2018-03-04T10:15:25.578Z,51.63
2018-03-04T10:17:56.508Z,63.03
2018-03-04T10:20:24.790Z,60.13
2018-03-04T10:22:53.401Z,63.73
2018-03-04T10:25:21.718Z,58.03
2018-03-04T10:27:49.963Z,54.37
2018-03-04T10:30:19.383Z,61.63
2018-03-04T10:32:47.633Z,65.87
2018-03-04T10:35:16.202Z,55.30
2018-03-04T10:37:44.861Z,69.27
2018-03-04T10:40:13.285Z,60.70
2018-03-04T10:42:41.521Z,67.40
2018-03-04T10:45:09.778Z,59.67
2018-03-04T10:47:38.050Z,58.83
2018-03-04T10:50:06.311Z,55.87
2018-03-04T10:52:34.563Z,50.80
2018-03-04T10:55:02.840Z,61.80
2018-03-04T10:57:31.086Z,56.07
2018-03-04T11:00:07.020Z,56.67
2018-03-04T11:02:38.266Z,58.03
2018-03-04T11:05:06.513Z,54.20
2018-03-04T11:07:34.785Z,59.10
2018-03-04T11:10:03.038Z,56.80
2018-03-04T11:12:32.091Z,55.93
2018-03-04T11:15:00.352Z,54.80
2018-03-04T11:17:28.604Z,58.87
2018-03-04T11:19:56.849Z,63.20
2018-03-04T11:22:25.152Z,57.07
2018-03-04T11:24:53.463Z,57.17
2018-03-04T11:27:22.214Z,55.97
2018-03-04T11:29:51.248Z,49.40
2018-03-04T11:32:19.485Z,47.47
2018-03-04T11:34:47.731Z,55.17
2018-03-04T11:37:16.022Z,57.30
2018-03-04T11:39:44.288Z,50.57
2018-03-04T11:42:13.330Z,53.70
2018-03-04T11:44:41.604Z,54.97
2018-03-04T11:47:09.858Z,52.50
2018-03-04T11:49:39.148Z,47.83
2018-03-04T11:52:07.963Z,53.50
2018-03-04T11:54:36.221Z,45.27
2018-03-04T11:57:04.466Z,44.10
2018-03-04T11:59:32.928Z,54.87
2018-03-04T12:02:01.190Z,51.77
2018-03-04T12:04:29.445Z,50.07
2018-03-04T12:06:57.722Z,55.13
2018-03-04T12:09:26.041Z,46.10
2018-03-04T12:11:54.634Z,50.20
2018-03-04T12:14:23.674Z,42.57
2018-03-04T12:16:52.066Z,44.97
2018-03-04T12:19:20.402Z,45.33
2018-03-04T12:21:48.705Z,45.80
2018-03-04T12:24:16.967Z,42.80
2018-03-04T12:26:45.221Z,39.57
2018-03-04T12:29:14.651Z,41.67
2018-03-04T12:31:42.973Z,37.60
2018-03-04T12:34:11.227Z,42.03
2018-03-04T12:36:40.314Z,41.03
2018-03-04T12:39:08.514Z,38.63
2018-03-04T12:41:36.991Z,36.63
2018-03-04T12:44:05.279Z,36.40
2018-03-04T12:46:33.530Z,37.97
2018-03-04T12:49:02.572Z,34.03
2018-03-04T12:51:30.849Z,32.40
2018-03-04T12:53:59.102Z,32.90
2018-03-04T12:56:27.371Z,32.90
2018-03-04T12:58:55.655Z,37.43
2018-03-04T13:01:23.930Z,29.17
2018-03-04T13:03:52.178Z,31.10
2018-03-04T13:06:21.521Z,32.00
2018-03-04T13:08:49.766Z,36.03
2018-03-04T13:11:18.785Z,32.40
2018-03-04T13:13:47.209Z,35.73
2018-03-04T13:16:15.489Z,39.40
2018-03-04T13:18:43.746Z,35.73
2018-03-04T13:21:12.786Z,37.77
2018-03-04T13:23:41.796Z,39.33
2018-03-04T13:26:10.058Z,42.03
2018-03-04T13:28:38.337Z,32.33
2018-03-04T13:31:06.925Z,28.37
2018-03-04T13:33:35.926Z,33.20
2018-03-04T13:36:04.321Z,25.87
2018-03-04T13:38:32.591Z,23.10
2018-03-04T13:41:01.211Z,27.90
2018-03-04T13:43:29.503Z,25.77
2018-03-04T13:45:58.866Z,27.83
2018-03-04T13:48:27.118Z,24.37
2018-03-04T13:50:56.154Z,22.90
2018-03-04T13:53:25.182Z,21.80
2018-03-04T13:55:53.449Z,23.40
2018-03-04T13:58:25.251Z,24.40
2018-03-04T14:00:53.509Z,23.13
2018-03-04T14:03:21.770Z,26.37
2018-03-04T14:05:50.418Z,29.90
2018-03-04T14:08:18.682Z,30.40
2018-03-04T14:10:46.925Z,31.30
2018-03-04T14:13:15.981Z,24.20
2018-03-04T14:15:44.211Z,32.83
2018-03-04T14:18:12.466Z,34.20
2018-03-04T14:20:40.897Z,31.27
2018-03-04T14:23:09.153Z,31.20
2018-03-04T14:25:37.414Z,30.20
2018-03-04T14:28:05.691Z,28.37
2018-03-04T14:30:34.716Z,27.43
2018-03-04T14:33:03.165Z,27.23
2018-03-04T14:35:32.209Z,26.93
2018-03-04T14:38:00.454Z,27.37
2018-03-04T14:40:28.707Z,25.70
2018-03-04T14:42:56.964Z,32.40
2018-03-04T14:45:25.230Z,32.60
2018-03-04T14:47:53.480Z,29.50
2018-03-04T14:50:21.755Z,31.53
2018-03-04T14:52:50.060Z,28.13
2018-03-04T14:55:18.278Z,31.33
2018-03-04T14:57:47.324Z,27.93
2018-03-04T15:00:15.569Z,28.33
2018-03-04T15:02:43.823Z,30.60
2018-03-04T15:05:12.451Z,25.97
2018-03-04T15:07:40.709Z,27.67
2018-03-04T15:10:08.954Z,29.23
2018-03-04T15:12:37.995Z,29.13
2018-03-04T15:15:06.255Z,30.80
2018-03-04T15:17:35.264Z,26.87
2018-03-04T15:20:03.539Z,30.63
2018-03-04T15:22:31.788Z,29.33
2018-03-04T15:25:00.809Z,30.13
2018-03-04T15:27:29.190Z,30.57
2018-03-04T15:29:57.434Z,36.70
2018-03-04T15:32:26.455Z,31.43
2018-03-04T15:34:54.918Z,34.43
2018-03-04T15:37:24.040Z,31.63
2018-03-04T15:39:52.287Z,33.43
2018-03-04T15:42:21.401Z,32.87
2018-03-04T15:44:50.529Z,33.83
2018-03-04T15:47:18.784Z,32.33
2018-03-04T15:49:47.082Z,31.93
2018-03-04T15:52:15.319Z,31.03
2018-03-04T15:54:44.330Z,30.90
2018-03-04T15:57:12.618Z,33.30
2018-03-04T15:59:40.968Z,34.17
2018-03-04T16:02:09.995Z,29.20
2018-03-04T16:04:38.254Z,27.93
2018-03-04T16:07:06.502Z,35.77
2018-03-04T16:09:35.510Z,35.90
2018-03-04T16:12:04.618Z,30.00
2018-03-04T16:14:32.861Z,26.50
2018-03-04T16:17:01.887Z,30.53
2018-03-04T16:19:33.669Z,34.00
2018-03-04T16:22:01.925Z,25.60
2018-03-04T16:24:30.175Z,29.30
2018-03-04T16:26:58.452Z,32.37
2018-03-04T16:29:26.705Z,32.47
2018-03-04T16:31:54.951Z,35.03
2018-03-04T16:34:23.343Z,36.67
2018-03-04T16:36:51.916Z,33.43
2018-03-04T16:39:20.903Z,31.87
2018-03-04T16:41:49.168Z,32.00
2018-03-04T16:44:17.407Z,33.60
2018-03-04T16:46:45.656Z,28.53
2018-03-04T16:49:14.117Z,30.10
2018-03-04T16:51:42.353Z,29.30
2018-03-04T16:54:11.387Z,27.83
2018-03-04T16:56:40.822Z,28.97
2018-03-04T16:59:09.050Z,28.00
2018-03-04T17:01:37.303Z,30.37
2018-03-04T17:04:06.332Z,36.27
2018-03-04T17:06:34.578Z,29.33
2018-03-04T17:09:03.616Z,27.27
2018-03-04T17:11:31.889Z,29.57
2018-03-04T17:14:00.302Z,30.90
2018-03-04T17:16:28.570Z,30.03
2018-03-04T17:18:56.907Z,29.23
2018-03-04T17:21:25.162Z,29.53
2018-03-04T17:23:54.169Z,32.97
2018-03-04T17:26:22.457Z,32.17
2018-03-04T17:28:50.713Z,37.50
2018-03-04T17:31:19.725Z,32.40
2018-03-04T17:33:48.010Z,30.60
2018-03-04T17:36:16.270Z,36.03
2018-03-04T17:38:45.571Z,37.53
2018-03-04T17:41:14.610Z,35.53
2018-03-04T17:43:42.896Z,41.17
2018-03-04T17:46:11.147Z,41.33
2018-03-04T17:48:39.446Z,34.20
2018-03-04T17:51:07.701Z,38.80
2018-03-04T17:53:35.946Z,47.37
2018-03-04T17:56:04.222Z,39.57
2018-03-04T17:58:32.467Z,44.97
2018-03-04T18:01:00.734Z,44.33
2018-03-04T18:03:29.404Z,38.00
2018-03-04T18:05:57.844Z,38.43
2018-03-04T18:08:26.931Z,39.77
2018-03-04T18:10:55.446Z,35.77
2018-03-04T18:13:23.690Z,37.80
2018-03-04T18:15:51.943Z,43.80
2018-03-04T18:18:20.236Z,33.57
2018-03-04T18:20:48.523Z,46.57
2018-03-04T18:23:16.848Z,44.33
2018-03-04T18:25:45.445Z,44.13
2018-03-04T18:28:13.702Z,40.97
2018-03-04T18:30:41.954Z,45.27
2018-03-04T18:33:10.219Z,49.63
2018-03-04T18:35:39.468Z,40.27
2018-03-04T18:38:07.726Z,48.83
2018-03-04T18:40:36.592Z,36.17
2018-03-04T18:43:05.615Z,44.20
2018-03-04T18:45:33.869Z,47.23
2018-03-04T18:48:02.906Z,43.50
2018-03-04T18:50:31.246Z,47.60
2018-03-04T18:52:59.797Z,46.97
2018-03-04T18:55:28.361Z,43.40
2018-03-04T18:57:56.640Z,46.90
2018-03-04T19:00:24.882Z,50.17
2018-03-04T19:02:53.158Z,54.03
2018-03-04T19:05:21.402Z,48.47
2018-03-04T19:07:49.654Z,44.63
2018-03-04T19:10:17.963Z,46.67
2018-03-04T19:12:46.449Z,49.03
2018-03-04T19:15:14.711Z,44.43
2018-03-04T19:17:43.000Z,50.60
2018-03-04T19:20:11.391Z,48.27
2018-03-04T19:22:39.646Z,56.00
2018-03-04T19:25:08.703Z,49.60
2018-03-04T19:27:36.954Z,47.07
2018-03-04T19:30:05.333Z,48.97
2018-03-04T19:32:33.629Z,44.20
2018-03-04T19:35:01.902Z,47.67
2018-03-04T19:37:30.330Z,50.87
2018-03-04T19:39:58.834Z,52.83
2018-03-04T19:42:28.256Z,48.30
2018-03-04T19:44:56.498Z,53.83
2018-03-04T19:47:25.174Z,50.90
2018-03-04T19:49:53.475Z,57.40
2018-03-04T19:52:21.717Z,48.93
2018-03-04T19:54:49.993Z,53.07
2018-03-04T19:57:18.241Z,44.43
2018-03-04T19:59:46.729Z,50.87
2018-03-04T20:02:15.040Z,54.97
2018-03-04T20:04:43.917Z,49.40
2018-03-04T20:07:12.193Z,55.17
2018-03-04T20:09:40.594Z,51.17
2018-03-04T20:12:09.272Z,57.20
2018-03-04T20:14:37.504Z,56.50
2018-03-04T20:17:05.827Z,50.90
2018-03-04T20:19:34.439Z,46.93
2018-03-04T20:22:06.058Z,60.00
2018-03-04T20:24:34.703Z,73.73
2018-03-04T20:27:02.947Z,63.47
2018-03-04T20:29:32.466Z,58.63
2018-03-04T20:32:00.839Z,56.33
2018-03-04T20:34:29.978Z,54.60
2018-03-04T20:36:58.349Z,55.43
2018-03-04T20:39:26.723Z,53.60
2018-03-04T20:41:54.978Z,50.03
2018-03-04T20:44:24.367Z,47.23
2018-03-04T20:46:53.818Z,55.87
2018-03-04T20:49:22.099Z,51.60
2018-03-04T20:51:50.412Z,56.13
2018-03-04T20:54:20.052Z,51.20
2018-03-04T20:56:49.425Z,54.90
2018-03-04T20:59:17.965Z,59.37
2018-03-04T21:01:46.661Z,53.13
2018-03-04T21:04:14.976Z,45.27
2018-03-04T21:06:43.379Z,46.07
2018-03-04T21:09:12.674Z,50.57
2018-03-04T21:11:41.234Z,48.97
2018-03-04T21:14:09.661Z,62.00
2018-03-04T21:16:38.232Z,53.17
2018-03-04T21:19:07.292Z,53.57
2018-03-04T21:21:35.543Z,52.73
2018-03-04T21:24:03.974Z,55.70
2018-03-04T21:26:32.997Z,52.70
2018-03-04T21:29:01.266Z,57.90
2018-03-04T21:31:30.301Z,62.17
2018-03-04T21:33:58.542Z,53.80
2018-03-04T21:36:26.789Z,50.30
2018-03-04T21:38:55.067Z,56.00
2018-03-04T21:41:23.308Z,52.10
2018-03-04T21:43:51.726Z,53.90
2018-03-04T21:46:20.151Z,54.30
2018-03-04T21:48:48.414Z,55.33
2018-03-04T21:51:16.671Z,45.93
2018-03-04T21:53:45.708Z,56.30
2018-03-04T21:56:13.954Z,54.27
2018-03-04T21:58:42.193Z,51.33
2018-03-04T22:01:10.462Z,64.20
2018-03-04T22:03:39.819Z,51.70
2018-03-04T22:06:08.083Z,55.97
2018-03-04T22:08:37.441Z,52.90
2018-03-04T22:11:05.698Z,51.07
2018-03-04T22:13:34.934Z,57.70
2018-03-04T22:16:03.178Z,60.77
2018-03-04T22:18:31.453Z,55.53
2018-03-04T22:20:59.703Z,59.50
2018-03-04T22:23:27.981Z,54.90
2018-03-04T22:25:56.248Z,51.73
2018-03-04T22:28:25.278Z,55.33
2018-03-04T22:30:54.262Z,50.00
2018-03-04T22:33:22.908Z,47.70
2018-03-04T22:35:52.159Z,54.80
2018-03-04T22:38:20.457Z,43.47
2018-03-04T22:40:48.926Z,45.37
2018-03-04T22:43:17.674Z,48.83
2018-03-04T22:45:46.171Z,51.07
2018-03-04T22:48:14.852Z,46.27
2018-03-04T22:50:43.459Z,54.60
2018-03-04T22:53:11.901Z,43.50
2018-03-04T22:55:40.375Z,53.23
2018-03-04T22:58:09.057Z,50.30
2018-03-04T23:00:37.373Z,43.60
2018-03-04T23:03:05.658Z,48.03
2018-03-04T23:05:34.181Z,47.43
2018-03-04T23:08:02.558Z,43.57
2018-03-04T23:10:31.141Z,45.10
2018-03-04T23:12:59.493Z,45.07
2018-03-04T23:15:27.749Z,44.63
2018-03-04T23:17:56.010Z,52.03
2018-03-04T23:20:25.175Z,47.30
2018-03-04T23:22:53.792Z,49.60
2018-03-04T23:25:22.305Z,41.37
2018-03-04T23:27:50.534Z,45.53
2018-03-04T23:30:19.580Z,43.60
2018-03-04T23:32:47.818Z,42.47
2018-03-04T23:35:16.487Z,48.10
2018-03-04T23:37:44.800Z,46.27
2018-03-04T23:40:13.290Z,52.27
2018-03-04T23:42:41.534Z,42.70
2018-03-04T23:45:09.818Z,44.80
2018-03-04T23:47:38.141Z,45.97
2018-03-04T23:50:07.360Z,51.03
2018-03-04T23:52:35.850Z,48.87
2018-03-04T23:55:04.108Z,58.73
2018-03-04T23:57:32.449Z,51.70
